sensor_id;sensor_type;location;lat;lon;timestamp;temperature;humidity
7494;DHT22;3788;49.902;8.590;2022-12-18T00:01:58;-6.50;99.20
7494;DHT22;3788;49.902;8.590;2022-12-18T00:04:26;-6.50;99.20
7494;DHT22;3788;49.902;8.590;2022-12-18T00:06:53;-6.50;99.20
7494;DHT22;3788;49.902;8.590;2022-12-18T00:09:20;-6.50;99.10
7494;DHT22;3788;49.902;8.590;2022-12-18T00:11:49;-6.50;99.10
7494;DHT22;3788;49.902;8.590;2022-12-18T00:14:15;-6.40;99.10
7494;DHT22;3788;49.902;8.590;2022-12-18T00:16:44;-6.40;99.00
7494;DHT22;3788;49.902;8.590;2022-12-18T00:19:12;-6.50;98.90
7494;DHT22;3788;49.902;8.590;2022-12-18T00:21:39;-6.50;98.90
7494;DHT22;3788;49.902;8.590;2022-12-18T00:24:06;-6.50;98.80
7494;DHT22;3788;49.902;8.590;2022-12-18T00:26:35;-6.50;98.70
7494;DHT22;3788;49.902;8.590;2022-12-18T00:29:05;-6.50;98.70
7494;DHT22;3788;49.902;8.590;2022-12-18T00:31:32;-6.50;98.70
7494;DHT22;3788;49.902;8.590;2022-12-18T00:33:59;-6.60;98.60
7494;DHT22;3788;49.902;8.590;2022-12-18T00:36:27;-6.60;98.50
7494;DHT22;3788;49.902;8.590;2022-12-18T00:38:55;-6.60;98.50
7494;DHT22;3788;49.902;8.590;2022-12-18T00:41:23;-6.60;98.60
7494;DHT22;3788;49.902;8.590;2022-12-18T00:44:10;-6.60;98.50
7494;DHT22;3788;49.902;8.590;2022-12-18T00:46:37;-6.70;98.40
7494;DHT22;3788;49.902;8.590;2022-12-18T00:49:05;-6.70;98.40
7494;DHT22;3788;49.902;8.590;2022-12-18T00:51:31;-6.70;98.40
7494;DHT22;3788;49.902;8.590;2022-12-18T00:53:58;-6.70;98.30
7494;DHT22;3788;49.902;8.590;2022-12-18T00:56:25;-6.80;98.30
7494;DHT22;3788;49.902;8.590;2022-12-18T00:58:51;-6.70;98.30
7494;DHT22;3788;49.902;8.590;2022-12-18T01:01:20;-6.80;98.20
7494;DHT22;3788;49.902;8.590;2022-12-18T01:03:46;-6.80;98.20
7494;DHT22;3788;49.902;8.590;2022-12-18T01:06:15;-6.80;98.20
7494;DHT22;3788;49.902;8.590;2022-12-18T01:08:42;-6.80;98.10
7494;DHT22;3788;49.902;8.590;2022-12-18T01:11:11;-6.70;98.10
7494;DHT22;3788;49.902;8.590;2022-12-18T01:13:38;-6.80;97.90
7494;DHT22;3788;49.902;8.590;2022-12-18T01:16:05;-6.80;97.90
7494;DHT22;3788;49.902;8.590;2022-12-18T01:18:33;-6.80;97.90
7494;DHT22;3788;49.902;8.590;2022-12-18T01:21:00;-6.80;97.80
7494;DHT22;3788;49.902;8.590;2022-12-18T01:23:26;-6.90;97.70
7494;DHT22;3788;49.902;8.590;2022-12-18T01:25:53;-6.90;97.60
7494;DHT22;3788;49.902;8.590;2022-12-18T01:28:20;-7.00;97.50
7494;DHT22;3788;49.902;8.590;2022-12-18T01:30:46;-7.00;97.50
7494;DHT22;3788;49.902;8.590;2022-12-18T01:33:13;-7.00;97.60
7494;DHT22;3788;49.902;8.590;2022-12-18T01:35:42;-7.00;97.60
7494;DHT22;3788;49.902;8.590;2022-12-18T01:38:09;-7.10;97.50
7494;DHT22;3788;49.902;8.590;2022-12-18T01:40:36;-7.00;97.60
7494;DHT22;3788;49.902;8.590;2022-12-18T01:43:02;-7.10;97.50
7494;DHT22;3788;49.902;8.590;2022-12-18T01:45:30;-7.10;97.50
7494;DHT22;3788;49.902;8.590;2022-12-18T01:47:59;-7.10;97.50
7494;DHT22;3788;49.902;8.590;2022-12-18T01:50:30;-7.10;97.50
7494;DHT22;3788;49.902;8.590;2022-12-18T01:53:02;-7.10;97.40
7494;DHT22;3788;49.902;8.590;2022-12-18T01:55:34;-7.10;97.30
7494;DHT22;3788;49.902;8.590;2022-12-18T01:58:03;-7.10;97.30
7494;DHT22;3788;49.902;8.590;2022-12-18T02:00:30;-7.10;97.40
7494;DHT22;3788;49.902;8.590;2022-12-18T02:02:57;-7.10;97.40
7494;DHT22;3788;49.902;8.590;2022-12-18T02:05:33;-7.10;97.30
7494;DHT22;3788;49.902;8.590;2022-12-18T02:08:08;-7.10;97.30
7494;DHT22;3788;49.902;8.590;2022-12-18T02:10:43;-7.10;97.40
7494;DHT22;3788;49.902;8.590;2022-12-18T02:13:17;-7.10;97.40
7494;DHT22;3788;49.902;8.590;2022-12-18T02:15:51;-7.10;97.40
7494;DHT22;3788;49.902;8.590;2022-12-18T02:18:22;-7.10;97.40
7494;DHT22;3788;49.902;8.590;2022-12-18T02:20:55;-7.10;97.30
7494;DHT22;3788;49.902;8.590;2022-12-18T02:23:44;-7.00;97.40
7494;DHT22;3788;49.902;8.590;2022-12-18T02:26:18;-7.00;97.40
7494;DHT22;3788;49.902;8.590;2022-12-18T02:28:51;-7.00;97.30
7494;DHT22;3788;49.902;8.590;2022-12-18T02:31:23;-7.10;97.20
7494;DHT22;3788;49.902;8.590;2022-12-18T02:33:53;-7.10;97.30
7494;DHT22;3788;49.902;8.590;2022-12-18T02:36:21;-7.10;97.30
7494;DHT22;3788;49.902;8.590;2022-12-18T02:38:50;-7.10;97.30
7494;DHT22;3788;49.902;8.590;2022-12-18T02:41:19;-7.10;97.30
7494;DHT22;3788;49.902;8.590;2022-12-18T02:43:49;-7.10;97.30
7494;DHT22;3788;49.902;8.590;2022-12-18T02:46:33;-7.00;97.30
7494;DHT22;3788;49.902;8.590;2022-12-18T02:49:09;-7.00;97.50
7494;DHT22;3788;49.902;8.590;2022-12-18T02:51:46;-7.00;97.20
7494;DHT22;3788;49.902;8.590;2022-12-18T02:54:22;-7.10;97.00
7494;DHT22;3788;49.902;8.590;2022-12-18T02:56:54;-7.10;96.90
7494;DHT22;3788;49.902;8.590;2022-12-18T02:59:25;-7.10;96.90
7494;DHT22;3788;49.902;8.590;2022-12-18T03:01:57;-7.20;96.80
7494;DHT22;3788;49.902;8.590;2022-12-18T03:04:26;-7.20;96.80
7494;DHT22;3788;49.902;8.590;2022-12-18T03:06:57;-7.20;96.90
7494;DHT22;3788;49.902;8.590;2022-12-18T03:09:33;-7.20;96.90
7494;DHT22;3788;49.902;8.590;2022-12-18T03:12:09;-7.10;97.00
7494;DHT22;3788;49.902;8.590;2022-12-18T03:14:54;-7.10;97.00
7494;DHT22;3788;49.902;8.590;2022-12-18T03:17:26;-7.10;96.90
7494;DHT22;3788;49.902;8.590;2022-12-18T03:19:56;-7.10;96.80
7494;DHT22;3788;49.902;8.590;2022-12-18T03:22:27;-7.20;96.60
7494;DHT22;3788;49.902;8.590;2022-12-18T03:24:56;-7.20;96.70
7494;DHT22;3788;49.902;8.590;2022-12-18T03:27:25;-7.20;96.70
7494;DHT22;3788;49.902;8.590;2022-12-18T03:29:56;-7.20;96.80
7494;DHT22;3788;49.902;8.590;2022-12-18T03:32:27;-7.20;96.80
7494;DHT22;3788;49.902;8.590;2022-12-18T03:34:59;-7.20;96.80
7494;DHT22;3788;49.902;8.590;2022-12-18T03:37:28;-7.20;96.80
7494;DHT22;3788;49.902;8.590;2022-12-18T03:39:55;-7.30;96.80
7494;DHT22;3788;49.902;8.590;2022-12-18T03:42:27;-7.30;96.90
7494;DHT22;3788;49.902;8.590;2022-12-18T03:44:58;-7.20;97.00
7494;DHT22;3788;49.902;8.590;2022-12-18T03:47:31;-7.20;97.00
7494;DHT22;3788;49.902;8.590;2022-12-18T03:50:09;-7.20;96.90
7494;DHT22;3788;49.902;8.590;2022-12-18T03:52:40;-7.20;96.90
7494;DHT22;3788;49.902;8.590;2022-12-18T03:55:09;-7.20;96.90
7494;DHT22;3788;49.902;8.590;2022-12-18T03:57:39;-7.20;96.90
7494;DHT22;3788;49.902;8.590;2022-12-18T04:00:10;-7.20;97.00
7494;DHT22;3788;49.902;8.590;2022-12-18T04:02:41;-7.20;97.00
7494;DHT22;3788;49.902;8.590;2022-12-18T04:05:10;-7.20;97.10
7494;DHT22;3788;49.902;8.590;2022-12-18T04:07:38;-7.10;97.20
7494;DHT22;3788;49.902;8.590;2022-12-18T04:10:07;-7.10;97.20
7494;DHT22;3788;49.902;8.590;2022-12-18T04:12:38;-7.10;97.20
7494;DHT22;3788;49.902;8.590;2022-12-18T04:15:06;-7.00;97.20
7494;DHT22;3788;49.902;8.590;2022-12-18T04:17:33;-7.00;97.10
7494;DHT22;3788;49.902;8.590;2022-12-18T04:20:00;-7.00;97.10
7494;DHT22;3788;49.902;8.590;2022-12-18T04:22:27;-7.00;97.10
7494;DHT22;3788;49.902;8.590;2022-12-18T04:24:54;-7.00;97.10
7494;DHT22;3788;49.902;8.590;2022-12-18T04:27:21;-7.10;97.00
7494;DHT22;3788;49.902;8.590;2022-12-18T04:29:49;-7.00;97.10
7494;DHT22;3788;49.902;8.590;2022-12-18T04:32:15;-7.00;97.20
7494;DHT22;3788;49.902;8.590;2022-12-18T04:34:42;-7.00;97.20
7494;DHT22;3788;49.902;8.590;2022-12-18T04:37:09;-7.00;97.20
7494;DHT22;3788;49.902;8.590;2022-12-18T04:39:35;-7.00;97.20
7494;DHT22;3788;49.902;8.590;2022-12-18T04:42:02;-7.00;97.20
7494;DHT22;3788;49.902;8.590;2022-12-18T04:44:29;-6.90;97.20
7494;DHT22;3788;49.902;8.590;2022-12-18T04:46:57;-6.90;97.20
7494;DHT22;3788;49.902;8.590;2022-12-18T04:49:24;-6.90;97.20
7494;DHT22;3788;49.902;8.590;2022-12-18T04:51:51;-6.80;97.20
7494;DHT22;3788;49.902;8.590;2022-12-18T04:54:18;-6.80;97.20
7494;DHT22;3788;49.902;8.590;2022-12-18T04:56:46;-6.80;97.10
7494;DHT22;3788;49.902;8.590;2022-12-18T04:59:12;-6.80;97.10
7494;DHT22;3788;49.902;8.590;2022-12-18T05:01:39;-6.80;97.10
7494;DHT22;3788;49.902;8.590;2022-12-18T05:04:07;-6.80;97.00
7494;DHT22;3788;49.902;8.590;2022-12-18T05:06:34;-6.80;97.00
7494;DHT22;3788;49.902;8.590;2022-12-18T05:09:01;-6.80;97.00
7494;DHT22;3788;49.902;8.590;2022-12-18T05:11:27;-6.80;97.00
7494;DHT22;3788;49.902;8.590;2022-12-18T05:13:54;-6.70;97.10
7494;DHT22;3788;49.902;8.590;2022-12-18T05:16:21;-6.70;97.10
7494;DHT22;3788;49.902;8.590;2022-12-18T05:18:48;-6.70;97.10
7494;DHT22;3788;49.902;8.590;2022-12-18T05:21:16;-6.70;97.10
7494;DHT22;3788;49.902;8.590;2022-12-18T05:23:43;-6.70;97.20
7494;DHT22;3788;49.902;8.590;2022-12-18T05:26:14;-6.70;97.20
7494;DHT22;3788;49.902;8.590;2022-12-18T05:28:41;-6.70;97.30
7494;DHT22;3788;49.902;8.590;2022-12-18T05:31:08;-6.60;97.40
7494;DHT22;3788;49.902;8.590;2022-12-18T05:33:35;-6.60;97.30
7494;DHT22;3788;49.902;8.590;2022-12-18T05:36:04;-6.60;97.20
7494;DHT22;3788;49.902;8.590;2022-12-18T05:38:34;-6.60;97.20
7494;DHT22;3788;49.902;8.590;2022-12-18T05:41:01;-6.60;97.20
7494;DHT22;3788;49.902;8.590;2022-12-18T05:43:28;-6.60;97.20
7494;DHT22;3788;49.902;8.590;2022-12-18T05:45:55;-6.60;97.20
7494;DHT22;3788;49.902;8.590;2022-12-18T05:48:23;-6.60;97.30
7494;DHT22;3788;49.902;8.590;2022-12-18T05:50:51;-6.60;97.20
7494;DHT22;3788;49.902;8.590;2022-12-18T05:53:20;-6.60;97.20
7494;DHT22;3788;49.902;8.590;2022-12-18T05:55:48;-6.60;97.30
7494;DHT22;3788;49.902;8.590;2022-12-18T05:58:15;-6.60;97.30
7494;DHT22;3788;49.902;8.590;2022-12-18T06:00:44;-6.60;97.30
7494;DHT22;3788;49.902;8.590;2022-12-18T06:03:12;-6.50;97.20
7494;DHT22;3788;49.902;8.590;2022-12-18T06:05:40;-6.50;97.20
7494;DHT22;3788;49.902;8.590;2022-12-18T06:08:07;-6.60;97.10
7494;DHT22;3788;49.902;8.590;2022-12-18T06:10:34;-6.60;97.10
7494;DHT22;3788;49.902;8.590;2022-12-18T06:13:03;-6.60;97.10
7494;DHT22;3788;49.902;8.590;2022-12-18T06:15:30;-6.60;97.10
7494;DHT22;3788;49.902;8.590;2022-12-18T06:17:57;-6.60;97.10
7494;DHT22;3788;49.902;8.590;2022-12-18T06:20:24;-6.60;97.20
7494;DHT22;3788;49.902;8.590;2022-12-18T06:22:50;-6.60;97.20
7494;DHT22;3788;49.902;8.590;2022-12-18T06:25:17;-6.60;97.20
7494;DHT22;3788;49.902;8.590;2022-12-18T06:27:44;-6.60;97.20
7494;DHT22;3788;49.902;8.590;2022-12-18T06:30:15;-6.60;97.20
7494;DHT22;3788;49.902;8.590;2022-12-18T06:32:41;-6.70;97.10
7494;DHT22;3788;49.902;8.590;2022-12-18T06:35:08;-6.70;97.00
7494;DHT22;3788;49.902;8.590;2022-12-18T06:37:35;-6.70;97.00
7494;DHT22;3788;49.902;8.590;2022-12-18T06:40:02;-6.80;96.90
7494;DHT22;3788;49.902;8.590;2022-12-18T06:42:30;-6.80;96.80
7494;DHT22;3788;49.902;8.590;2022-12-18T06:44:57;-6.80;96.70
7494;DHT22;3788;49.902;8.590;2022-12-18T06:47:25;-6.90;96.60
7494;DHT22;3788;49.902;8.590;2022-12-18T06:49:52;-6.90;96.20
7494;DHT22;3788;49.902;8.590;2022-12-18T06:52:19;-7.00;95.80
7494;DHT22;3788;49.902;8.590;2022-12-18T06:54:46;-7.20;95.50
7494;DHT22;3788;49.902;8.590;2022-12-18T06:57:12;-7.30;95.30
7494;DHT22;3788;49.902;8.590;2022-12-18T06:59:39;-7.40;95.20
7494;DHT22;3788;49.902;8.590;2022-12-18T07:02:06;-7.50;95.40
7494;DHT22;3788;49.902;8.590;2022-12-18T07:04:34;-7.50;95.40
7494;DHT22;3788;49.902;8.590;2022-12-18T07:07:00;-7.60;95.40
7494;DHT22;3788;49.902;8.590;2022-12-18T07:09:27;-7.60;95.30
7494;DHT22;3788;49.902;8.590;2022-12-18T07:11:54;-7.70;95.20
7494;DHT22;3788;49.902;8.590;2022-12-18T07:14:21;-7.70;95.10
7494;DHT22;3788;49.902;8.590;2022-12-18T07:16:48;-7.80;94.90
7494;DHT22;3788;49.902;8.590;2022-12-18T07:19:14;-7.90;94.70
7494;DHT22;3788;49.902;8.590;2022-12-18T07:21:42;-8.00;94.50
7494;DHT22;3788;49.902;8.590;2022-12-18T07:24:09;-8.00;94.50
7494;DHT22;3788;49.902;8.590;2022-12-18T07:26:36;-8.10;94.40
7494;DHT22;3788;49.902;8.590;2022-12-18T07:29:03;-8.10;94.40
7494;DHT22;3788;49.902;8.590;2022-12-18T07:31:29;-8.10;94.50
7494;DHT22;3788;49.902;8.590;2022-12-18T07:33:56;-8.10;94.60
7494;DHT22;3788;49.902;8.590;2022-12-18T07:36:23;-8.20;94.40
7494;DHT22;3788;49.902;8.590;2022-12-18T07:38:51;-8.10;94.60
7494;DHT22;3788;49.902;8.590;2022-12-18T07:41:18;-8.10;94.60
7494;DHT22;3788;49.902;8.590;2022-12-18T07:43:45;-8.10;94.50
7494;DHT22;3788;49.902;8.590;2022-12-18T07:46:13;-8.10;94.50
7494;DHT22;3788;49.902;8.590;2022-12-18T07:48:41;-8.00;94.60
7494;DHT22;3788;49.902;8.590;2022-12-18T07:51:08;-8.00;94.50
7494;DHT22;3788;49.902;8.590;2022-12-18T07:53:36;-8.00;94.50
7494;DHT22;3788;49.902;8.590;2022-12-18T07:56:06;-7.90;94.50
7494;DHT22;3788;49.902;8.590;2022-12-18T07:58:33;-7.90;94.10
7494;DHT22;3788;49.902;8.590;2022-12-18T08:01:05;-8.00;94.00
7494;DHT22;3788;49.902;8.590;2022-12-18T08:03:32;-8.00;94.10
7494;DHT22;3788;49.902;8.590;2022-12-18T08:06:00;-8.10;94.00
7494;DHT22;3788;49.902;8.590;2022-12-18T08:08:27;-8.20;94.20
7494;DHT22;3788;49.902;8.590;2022-12-18T08:10:55;-8.30;94.50
7494;DHT22;3788;49.902;8.590;2022-12-18T08:13:25;-8.30;94.60
7494;DHT22;3788;49.902;8.590;2022-12-18T08:15:59;-8.20;94.80
7494;DHT22;3788;49.902;8.590;2022-12-18T08:18:26;-8.20;94.90
7494;DHT22;3788;49.902;8.590;2022-12-18T08:20:55;-8.10;95.00
7494;DHT22;3788;49.902;8.590;2022-12-18T08:23:24;-8.00;95.00
7494;DHT22;3788;49.902;8.590;2022-12-18T08:25:51;-7.90;95.00
7494;DHT22;3788;49.902;8.590;2022-12-18T08:28:18;-7.90;94.90
7494;DHT22;3788;49.902;8.590;2022-12-18T08:30:46;-7.80;94.90
7494;DHT22;3788;49.902;8.590;2022-12-18T08:33:12;-7.70;94.90
7494;DHT22;3788;49.902;8.590;2022-12-18T08:35:39;-7.60;94.90
7494;DHT22;3788;49.902;8.590;2022-12-18T08:38:06;-7.40;94.90
7494;DHT22;3788;49.902;8.590;2022-12-18T08:40:32;-7.30;94.90
7494;DHT22;3788;49.902;8.590;2022-12-18T08:42:59;-7.20;94.90
7494;DHT22;3788;49.902;8.590;2022-12-18T08:45:43;-7.10;94.80
7494;DHT22;3788;49.902;8.590;2022-12-18T08:48:12;-6.90;94.60
7494;DHT22;3788;49.902;8.590;2022-12-18T08:50:38;-6.90;94.20
7494;DHT22;3788;49.902;8.590;2022-12-18T08:53:05;-6.90;94.00
7494;DHT22;3788;49.902;8.590;2022-12-18T08:55:32;-6.90;94.00
7494;DHT22;3788;49.902;8.590;2022-12-18T08:57:59;-6.90;94.10
7494;DHT22;3788;49.902;8.590;2022-12-18T09:00:26;-6.80;94.10
7494;DHT22;3788;49.902;8.590;2022-12-18T09:02:52;-6.80;94.10
7494;DHT22;3788;49.902;8.590;2022-12-18T09:05:20;-6.70;94.10
7494;DHT22;3788;49.902;8.590;2022-12-18T09:07:47;-6.70;94.10
7494;DHT22;3788;49.902;8.590;2022-12-18T09:10:14;-6.60;94.00
7494;DHT22;3788;49.902;8.590;2022-12-18T09:12:41;-6.50;94.10
7494;DHT22;3788;49.902;8.590;2022-12-18T09:15:08;-6.50;94.10
7494;DHT22;3788;49.902;8.590;2022-12-18T09:17:35;-6.40;94.10
7494;DHT22;3788;49.902;8.590;2022-12-18T09:20:03;-6.30;94.10
7494;DHT22;3788;49.902;8.590;2022-12-18T09:22:31;-6.20;94.20
7494;DHT22;3788;49.902;8.590;2022-12-18T09:24:58;-6.20;94.20
7494;DHT22;3788;49.902;8.590;2022-12-18T09:27:24;-6.20;94.30
7494;DHT22;3788;49.902;8.590;2022-12-18T09:29:51;-6.10;94.50
7494;DHT22;3788;49.902;8.590;2022-12-18T09:32:18;-6.00;94.50
7494;DHT22;3788;49.902;8.590;2022-12-18T09:34:45;-6.00;94.60
7494;DHT22;3788;49.902;8.590;2022-12-18T09:37:12;-5.90;94.60
7494;DHT22;3788;49.902;8.590;2022-12-18T09:39:40;-5.90;94.70
7494;DHT22;3788;49.902;8.590;2022-12-18T09:42:16;-5.80;94.80
7494;DHT22;3788;49.902;8.590;2022-12-18T09:44:48;-5.70;94.90
7494;DHT22;3788;49.902;8.590;2022-12-18T09:47:17;-5.60;94.90
7494;DHT22;3788;49.902;8.590;2022-12-18T09:49:46;-5.60;95.00
7494;DHT22;3788;49.902;8.590;2022-12-18T09:52:19;-5.60;95.00
7494;DHT22;3788;49.902;8.590;2022-12-18T09:54:52;-5.50;95.30
7494;DHT22;3788;49.902;8.590;2022-12-18T09:57:21;-5.50;95.40
7494;DHT22;3788;49.902;8.590;2022-12-18T09:59:53;-5.40;95.50
7494;DHT22;3788;49.902;8.590;2022-12-18T10:02:22;-5.30;95.50
7494;DHT22;3788;49.902;8.590;2022-12-18T10:05:00;-5.10;95.70
7494;DHT22;3788;49.902;8.590;2022-12-18T10:07:36;-5.00;95.80
7494;DHT22;3788;49.902;8.590;2022-12-18T10:10:12;-4.80;95.80
7494;DHT22;3788;49.902;8.590;2022-12-18T10:12:44;-4.70;95.90
7494;DHT22;3788;49.902;8.590;2022-12-18T10:15:17;-4.60;95.90
7494;DHT22;3788;49.902;8.590;2022-12-18T10:17:51;-4.50;96.10
7494;DHT22;3788;49.902;8.590;2022-12-18T10:20:24;-4.40;96.20
7494;DHT22;3788;49.902;8.590;2022-12-18T10:22:59;-4.20;96.40
7494;DHT22;3788;49.902;8.590;2022-12-18T10:25:31;-4.10;96.50
7494;DHT22;3788;49.902;8.590;2022-12-18T10:28:07;-4.00;96.60
7494;DHT22;3788;49.902;8.590;2022-12-18T10:30:35;-3.80;96.60
7494;DHT22;3788;49.902;8.590;2022-12-18T10:33:02;-3.60;96.50
7494;DHT22;3788;49.902;8.590;2022-12-18T10:35:29;-3.50;96.40
7494;DHT22;3788;49.902;8.590;2022-12-18T10:38:01;-3.50;96.30
7494;DHT22;3788;49.902;8.590;2022-12-18T10:40:29;-3.40;96.10
7494;DHT22;3788;49.902;8.590;2022-12-18T10:43:05;-3.40;95.70
7494;DHT22;3788;49.902;8.590;2022-12-18T10:45:32;-3.30;95.60
7494;DHT22;3788;49.902;8.590;2022-12-18T10:48:00;-3.30;95.30
7494;DHT22;3788;49.902;8.590;2022-12-18T10:50:30;-3.30;95.20
7494;DHT22;3788;49.902;8.590;2022-12-18T10:52:59;-3.20;95.40
7494;DHT22;3788;49.902;8.590;2022-12-18T10:55:32;-3.10;95.20
7494;DHT22;3788;49.902;8.590;2022-12-18T10:58:16;-3.10;95.10
7494;DHT22;3788;49.902;8.590;2022-12-18T11:00:43;-3.00;94.80
7494;DHT22;3788;49.902;8.590;2022-12-18T11:03:29;-3.00;94.80
7494;DHT22;3788;49.902;8.590;2022-12-18T11:06:02;-2.90;95.00
7494;DHT22;3788;49.902;8.590;2022-12-18T11:08:28;-2.80;94.60
7494;DHT22;3788;49.902;8.590;2022-12-18T11:10:57;-2.90;94.20
7494;DHT22;3788;49.902;8.590;2022-12-18T11:13:26;-2.90;94.50
7494;DHT22;3788;49.902;8.590;2022-12-18T11:15:53;-2.90;94.20
7494;DHT22;3788;49.902;8.590;2022-12-18T11:18:24;-2.90;94.10
7494;DHT22;3788;49.902;8.590;2022-12-18T11:20:53;-2.90;94.10
7494;DHT22;3788;49.902;8.590;2022-12-18T11:23:22;-2.80;94.20
7494;DHT22;3788;49.902;8.590;2022-12-18T11:25:55;-2.80;94.00
7494;DHT22;3788;49.902;8.590;2022-12-18T11:28:45;-2.70;94.00
7494;DHT22;3788;49.902;8.590;2022-12-18T11:31:20;-2.70;94.00
7494;DHT22;3788;49.902;8.590;2022-12-18T11:33:51;-2.70;93.70
7494;DHT22;3788;49.902;8.590;2022-12-18T11:36:19;-2.70;93.80
7494;DHT22;3788;49.902;8.590;2022-12-18T11:38:49;-2.60;93.90
7494;DHT22;3788;49.902;8.590;2022-12-18T11:41:23;-2.60;93.70
7494;DHT22;3788;49.902;8.590;2022-12-18T11:44:15;-2.50;93.50
7494;DHT22;3788;49.902;8.590;2022-12-18T11:46:48;-2.50;93.40
7494;DHT22;3788;49.902;8.590;2022-12-18T11:49:20;-2.50;93.30
7494;DHT22;3788;49.902;8.590;2022-12-18T11:51:51;-2.50;93.30
7494;DHT22;3788;49.902;8.590;2022-12-18T11:54:19;-2.50;93.30
7494;DHT22;3788;49.902;8.590;2022-12-18T11:56:49;-2.40;93.30
7494;DHT22;3788;49.902;8.590;2022-12-18T11:59:27;-2.30;93.40
7494;DHT22;3788;49.902;8.590;2022-12-18T12:01:59;-2.40;93.20
7494;DHT22;3788;49.902;8.590;2022-12-18T12:07:34;-2.30;93.30
7494;DHT22;3788;49.902;8.590;2022-12-18T12:10:15;-2.30;93.30
7494;DHT22;3788;49.902;8.590;2022-12-18T12:12:55;-2.20;93.30
7494;DHT22;3788;49.902;8.590;2022-12-18T12:15:34;-2.10;93.30
7494;DHT22;3788;49.902;8.590;2022-12-18T12:18:13;-2.10;93.20
7494;DHT22;3788;49.902;8.590;2022-12-18T12:20:49;-2.00;93.30
7494;DHT22;3788;49.902;8.590;2022-12-18T12:23:24;-2.00;93.10
7494;DHT22;3788;49.902;8.590;2022-12-18T12:25:57;-2.00;93.20
7494;DHT22;3788;49.902;8.590;2022-12-18T12:28:48;-2.00;93.20
7494;DHT22;3788;49.902;8.590;2022-12-18T12:31:30;-2.10;93.20
7494;DHT22;3788;49.902;8.590;2022-12-18T12:34:06;-2.00;93.40
7494;DHT22;3788;49.902;8.590;2022-12-18T12:36:44;-2.00;93.40
7494;DHT22;3788;49.902;8.590;2022-12-18T12:39:16;-2.00;93.40
7494;DHT22;3788;49.902;8.590;2022-12-18T12:41:45;-2.00;93.50
7494;DHT22;3788;49.902;8.590;2022-12-18T12:44:33;-1.90;93.60
7494;DHT22;3788;49.902;8.590;2022-12-18T12:47:09;-1.90;93.50
7494;DHT22;3788;49.902;8.590;2022-12-18T12:49:38;-1.80;93.50
7494;DHT22;3788;49.902;8.590;2022-12-18T12:52:13;-1.80;93.40
7494;DHT22;3788;49.902;8.590;2022-12-18T12:54:41;-1.70;93.60
7494;DHT22;3788;49.902;8.590;2022-12-18T12:57:11;-1.70;93.40
7494;DHT22;3788;49.902;8.590;2022-12-18T12:59:45;-1.70;93.50
7494;DHT22;3788;49.902;8.590;2022-12-18T13:02:20;-1.70;93.50
7494;DHT22;3788;49.902;8.590;2022-12-18T13:04:52;-1.70;93.50
7494;DHT22;3788;49.902;8.590;2022-12-18T13:07:26;-1.70;93.40
7494;DHT22;3788;49.902;8.590;2022-12-18T13:10:28;-1.70;93.40
7494;DHT22;3788;49.902;8.590;2022-12-18T13:12:58;-1.60;93.40
7494;DHT22;3788;49.902;8.590;2022-12-18T13:15:32;-1.60;93.50
7494;DHT22;3788;49.902;8.590;2022-12-18T13:18:18;-1.60;93.60
7494;DHT22;3788;49.902;8.590;2022-12-18T13:20:47;-1.60;93.30
7494;DHT22;3788;49.902;8.590;2022-12-18T13:23:27;-1.70;93.40
7494;DHT22;3788;49.902;8.590;2022-12-18T13:25:55;-1.80;93.60
7494;DHT22;3788;49.902;8.590;2022-12-18T13:28:23;-1.90;93.80
7494;DHT22;3788;49.902;8.590;2022-12-18T13:31:10;-1.90;93.80
7494;DHT22;3788;49.902;8.590;2022-12-18T13:33:43;-1.90;93.90
7494;DHT22;3788;49.902;8.590;2022-12-18T13:36:15;-1.80;93.90
7494;DHT22;3788;49.902;8.590;2022-12-18T13:38:42;-1.80;94.00
7494;DHT22;3788;49.902;8.590;2022-12-18T13:41:24;-1.80;94.00
7494;DHT22;3788;49.902;8.590;2022-12-18T13:43:52;-1.90;94.10
7494;DHT22;3788;49.902;8.590;2022-12-18T13:46:22;-1.80;94.10
7494;DHT22;3788;49.902;8.590;2022-12-18T13:48:57;-1.90;94.20
7494;DHT22;3788;49.902;8.590;2022-12-18T13:51:24;-1.90;94.30
7494;DHT22;3788;49.902;8.590;2022-12-18T13:53:54;-1.90;94.40
7494;DHT22;3788;49.902;8.590;2022-12-18T13:56:25;-2.00;94.50
7494;DHT22;3788;49.902;8.590;2022-12-18T13:59:16;-1.90;94.70
7494;DHT22;3788;49.902;8.590;2022-12-18T14:01:49;-2.00;94.70
7494;DHT22;3788;49.902;8.590;2022-12-18T14:04:23;-2.00;94.90
7494;DHT22;3788;49.902;8.590;2022-12-18T14:06:53;-2.00;95.00
7494;DHT22;3788;49.902;8.590;2022-12-18T14:09:27;-2.00;95.20
7494;DHT22;3788;49.902;8.590;2022-12-18T14:11:55;-2.00;95.20
7494;DHT22;3788;49.902;8.590;2022-12-18T14:14:45;-2.00;95.30
7494;DHT22;3788;49.902;8.590;2022-12-18T14:17:14;-1.90;95.30
7494;DHT22;3788;49.902;8.590;2022-12-18T14:19:43;-1.90;95.30
7494;DHT22;3788;49.902;8.590;2022-12-18T14:22:16;-1.90;95.20
7494;DHT22;3788;49.902;8.590;2022-12-18T14:24:43;-1.90;95.20
7494;DHT22;3788;49.902;8.590;2022-12-18T14:27:22;-1.90;95.30
7494;DHT22;3788;49.902;8.590;2022-12-18T14:29:49;-2.00;95.40
7494;DHT22;3788;49.902;8.590;2022-12-18T14:32:18;-1.90;95.60
7494;DHT22;3788;49.902;8.590;2022-12-18T14:34:47;-1.90;95.60
7494;DHT22;3788;49.902;8.590;2022-12-18T14:37:17;-1.90;95.60
7494;DHT22;3788;49.902;8.590;2022-12-18T14:39:54;-1.90;95.60
7494;DHT22;3788;49.902;8.590;2022-12-18T14:42:22;-1.90;95.60
7494;DHT22;3788;49.902;8.590;2022-12-18T14:47:59;-1.90;95.70
7494;DHT22;3788;49.902;8.590;2022-12-18T14:50:27;-2.00;95.80
7494;DHT22;3788;49.902;8.590;2022-12-18T14:52:54;-2.00;95.90
7494;DHT22;3788;49.902;8.590;2022-12-18T14:55:21;-2.00;95.90
7494;DHT22;3788;49.902;8.590;2022-12-18T14:57:51;-2.00;96.00
7494;DHT22;3788;49.902;8.590;2022-12-18T15:00:20;-2.00;96.10
7494;DHT22;3788;49.902;8.590;2022-12-18T15:02:51;-2.00;96.20
7494;DHT22;3788;49.902;8.590;2022-12-18T15:05:23;-2.00;96.20
7494;DHT22;3788;49.902;8.590;2022-12-18T15:07:53;-2.00;96.30
7494;DHT22;3788;49.902;8.590;2022-12-18T15:10:22;-2.00;96.30
7494;DHT22;3788;49.902;8.590;2022-12-18T15:13:05;-2.00;96.30
7494;DHT22;3788;49.902;8.590;2022-12-18T15:15:45;-2.10;96.30
7494;DHT22;3788;49.902;8.590;2022-12-18T15:18:13;-2.10;96.40
7494;DHT22;3788;49.902;8.590;2022-12-18T15:20:43;-2.10;96.50
7494;DHT22;3788;49.902;8.590;2022-12-18T15:23:23;-2.10;96.50
7494;DHT22;3788;49.902;8.590;2022-12-18T15:25:55;-2.10;96.60
7494;DHT22;3788;49.902;8.590;2022-12-18T15:28:24;-2.10;96.70
7494;DHT22;3788;49.902;8.590;2022-12-18T15:30:59;-2.20;96.70
7494;DHT22;3788;49.902;8.590;2022-12-18T15:33:30;-2.10;96.80
7494;DHT22;3788;49.902;8.590;2022-12-18T15:35:58;-2.10;96.90
7494;DHT22;3788;49.902;8.590;2022-12-18T15:38:26;-2.20;96.90
7494;DHT22;3788;49.902;8.590;2022-12-18T15:40:53;-2.20;96.90
7494;DHT22;3788;49.902;8.590;2022-12-18T15:43:21;-2.20;97.00
7494;DHT22;3788;49.902;8.590;2022-12-18T15:46:02;-2.20;97.00
7494;DHT22;3788;49.902;8.590;2022-12-18T15:48:29;-2.20;97.10
7494;DHT22;3788;49.902;8.590;2022-12-18T15:50:58;-2.20;97.10
7494;DHT22;3788;49.902;8.590;2022-12-18T15:53:30;-2.20;97.20
7494;DHT22;3788;49.902;8.590;2022-12-18T15:55:57;-2.20;97.30
7494;DHT22;3788;49.902;8.590;2022-12-18T15:58:42;-2.20;97.30
7494;DHT22;3788;49.902;8.590;2022-12-18T16:01:09;-2.20;97.30
7494;DHT22;3788;49.902;8.590;2022-12-18T16:03:37;-2.20;97.40
7494;DHT22;3788;49.902;8.590;2022-12-18T16:06:04;-2.20;97.40
7494;DHT22;3788;49.902;8.590;2022-12-18T16:08:32;-2.20;97.40
7494;DHT22;3788;49.902;8.590;2022-12-18T16:10:59;-2.20;97.50
7494;DHT22;3788;49.902;8.590;2022-12-18T16:13:26;-2.20;97.50
7494;DHT22;3788;49.902;8.590;2022-12-18T16:15:53;-2.20;97.50
7494;DHT22;3788;49.902;8.590;2022-12-18T16:18:20;-2.20;97.60
7494;DHT22;3788;49.902;8.590;2022-12-18T16:20:47;-2.10;97.60
7494;DHT22;3788;49.902;8.590;2022-12-18T16:23:14;-2.10;97.60
7494;DHT22;3788;49.902;8.590;2022-12-18T16:25:42;-2.10;97.60
7494;DHT22;3788;49.902;8.590;2022-12-18T16:28:09;-2.10;97.60